< < Back
Terminal Aerodrome Forecast


Current Version              Previous Versions:   1  2  3  4  5  6  7  8  9  

Terminal Aerodrome Forecast

735
FTUS44 KBMX 031720
TAFTCL
TAF
KTCL 031720Z 0318/0418 33002KT P6SM SCT040 BKN250
     FM041100 35001KT 5SM BR SCT040 BKN250
     FM041400 VRB03KT P6SM SKC=

Latest METAR

694
SAUS70 KWBC 032000 RRH
MTRTCL
METAR KTCL 031953Z 01003KT 10SM SCT050 BKN065 33/20 A2995 RMK AO2 SLP138
T03280200


USA.gov is the U.S. government's official web portal to all federal, state and local government web resources and services.